Time;durP1;ratioP1;P1;durP2;ratioP2;P2;SDS_P1;SDS_P2;PMS_P1;PMS_P2;Temp;Humidity;BMP_temperature;BMP_pressure;BME280_temperature;BME280_humidity;BME280_pressure;Samples;Min_cycle;Max_cycle;Signal;HPM_P1;HPM_P2
2022/10/02 00:00:12;;;;;;;;;10.00;10.00;;;;;12.31;100.00;99349.16;6275930;20;2792121;-55
2022/10/02 00:02:55;;;;;;;;;16.00;12.00;;;;;12.32;100.00;99356.25;6275751;20;2804551;-56
2022/10/02 00:05:44;;;;;;;;;14.00;11.00;;;;;12.38;100.00;99360.34;6276190;20;2796182;-56
2022/10/02 00:08:24;;;;;;;;;13.80;12.60;;;;;12.43;100.00;99363.53;6298434;20;2807586;-55
2022/10/02 00:11:42;;;;;;;;;13.00;11.60;;;;;12.47;100.00;99367.72;6299526;20;2794230;-54
2022/10/02 00:14:17;;;;;;;;;12.80;11.60;;;;;12.46;100.00;99369.56;6297630;20;2791073;-55
2022/10/02 00:16:55;;;;;;;;;12.67;12.33;;;;;12.38;100.00;99366.56;6269097;20;2786869;-56
2022/10/02 00:19:25;;;;;;;;;12.50;12.50;;;;;12.27;100.00;99369.22;6306406;20;2802436;-54
2022/10/02 00:22:19;;;;;;;;;15.00;12.00;;;;;12.21;100.00;99365.09;6274114;20;2782720;-55
2022/10/02 00:25:18;;;;;;;;;11.00;11.00;;;;;12.14;100.00;99377.31;6305518;20;3515944;-53
2022/10/02 00:28:16;;;;;;;;;12.50;10.50;;;;;12.12;100.00;99376.56;6301878;20;2789986;-56
2022/10/02 00:31:47;;;;;;;;;11.33;11.33;;;;;12.15;100.00;99378.19;6272998;20;2796105;-54
2022/10/02 00:34:51;;;;;;;;;10.80;10.00;;;;;12.12;100.00;99364.94;6323326;20;2794036;-56
2022/10/02 00:37:35;;;;;;;;;11.00;11.00;;;;;12.16;100.00;99375.34;6273666;20;2793043;-56
2022/10/02 00:40:52;;;;;;;;;10.50;9.50;;;;;12.13;100.00;99372.88;6276234;20;2776503;-55
2022/10/02 00:43:39;;;;;;;;;10.00;9.60;;;;;12.14;100.00;99379.13;6300142;20;2783638;-54
2022/10/02 00:47:10;;;;;;;;;9.00;8.00;;;;;12.06;100.00;99385.09;6273853;20;2738892;-53
2022/10/02 00:50:37;;;;;;;;;8.50;7.00;;;;;12.18;100.00;99392.25;6274822;20;2744154;-52
2022/10/02 00:53:39;;;;;;;;;7.00;7.00;;;;;12.23;100.00;99400.00;6278919;20;2738824;-56
2022/10/02 00:56:56;;;;;;;;;11.00;9.50;;;;;12.29;100.00;99394.16;6274581;20;2781548;-54
2022/10/02 01:00:12;;;;;;;;;5.50;5.00;;;;;12.30;100.00;99401.28;6280456;20;2743038;-55
2022/10/02 01:03:08;;;;;;;;;8.00;8.00;;;;;12.32;100.00;99410.09;6285469;20;2752545;-58
2022/10/02 01:05:36;;;;;;;;;7.50;7.50;;;;;12.40;100.00;99407.72;6278127;20;2748229;-55
2022/10/02 01:08:07;;;;;;;;;8.50;7.25;;;;;12.45;100.00;99410.94;6297344;20;1791575;-55
2022/10/02 01:10:39;;;;;;;;;6.50;6.50;;;;;12.59;100.00;99401.81;6359521;20;1802381;-55
2022/10/02 01:13:07;;;;;;;;;6.00;6.00;;;;;12.71;100.00;99408.09;6310836;20;2744026;-55
2022/10/02 01:15:43;;;;;;;;;7.00;7.00;;;;;12.70;100.00;99409.94;6286347;20;2743084;-54
2022/10/02 01:18:14;;;;;;;;;7.00;7.00;;;;;12.75;100.00;99412.31;6280213;20;2732030;-54
2022/10/02 01:20:49;;;;;;;;;5.00;5.00;;;;;12.63;100.00;99411.38;6284112;20;2739880;-54
2022/10/02 01:23:59;;;;;;;;;7.50;6.00;;;;;12.65;100.00;99397.81;6280846;20;2746186;-54
2022/10/02 01:26:27;;;;;;;;;6.00;6.00;;;;;12.56;100.00;99407.44;6274493;20;2744035;-54
2022/10/02 01:28:55;;;;;;;;;8.00;6.00;;;;;12.57;100.00;99405.59;6278262;20;2744096;-54
2022/10/02 01:31:23;;;;;;;;;5.00;5.00;;;;;12.55;100.00;99397.63;6279704;20;2732593;-54
2022/10/02 01:33:52;;;;;;;;;6.00;6.00;;;;;12.46;100.00;99401.00;6281349;20;2736826;-52
2022/10/02 01:36:21;;;;;;;;;8.00;6.00;;;;;12.43;100.00;99402.09;6276121;20;2744033;-50
2022/10/02 01:38:51;;;;;;;;;4.00;4.00;;;;;12.42;100.00;99400.34;6280139;20;2743022;-56
2022/10/02 01:41:19;;;;;;;;;7.00;5.50;;;;;12.39;100.00;99403.28;6279268;20;2739977;-53
2022/10/02 01:43:57;;;;;;;;;6.00;6.00;;;;;12.33;100.00;99417.19;6282156;20;2738856;-54
2022/10/02 01:46:38;;;;;;;;;5.00;5.00;;;;;12.32;100.00;99415.47;6278157;20;2747183;-54
2022/10/02 01:49:52;;;;;;;;;5.14;4.00;;;;;12.45;100.00;99421.69;6320181;20;3456587;-54
2022/10/02 01:52:42;;;;;;;;;4.00;4.00;;;;;12.40;100.00;99425.69;6313454;20;2739913;-54
2022/10/02 01:56:23;;;;;;;;;6.00;6.00;;;;;12.28;100.00;99428.31;6284658;20;2728436;-56
2022/10/02 01:59:09;;;;;;;;;5.00;4.00;;;;;12.21;100.00;99442.31;6274844;20;2752403;-53
2022/10/02 02:02:27;;;;;;;;;5.00;5.00;;;;;12.31;100.00;99438.00;6282189;20;2743767;-51
2022/10/02 02:05:36;;;;;;;;;3.00;3.00;;;;;12.23;100.00;99427.78;6278294;20;2739860;-54
2022/10/02 02:08:30;;;;;;;;;4.00;4.00;;;;;12.28;100.00;99432.84;6277133;20;2756508;-52
2022/10/02 02:11:19;;;;;;;;;4.00;4.00;;;;;12.17;100.00;99430.91;6278245;20;2747147;-53
2022/10/02 02:14:04;;;;;;;;;3.00;3.00;;;;;12.34;100.00;99439.59;6278390;20;2730560;-54
2022/10/02 02:16:49;;;;;;;;;4.00;3.50;;;;;12.29;100.00;99442.63;6276371;20;2756063;-54
2022/10/02 02:19:37;;;;;;;;;4.00;4.00;;;;;12.24;100.00;99439.41;6279510;20;2739880;-55
2022/10/02 02:22:36;;;;;;;;;3.00;3.00;;;;;12.24;100.00;99452.84;6276551;20;2738937;-51
2022/10/02 02:25:14;;;;;;;;;5.00;5.00;;;;;12.15;100.00;99461.59;6280408;20;2745070;-51
2022/10/02 02:27:50;;;;;;;;;5.00;5.00;;;;;12.14;100.00;99459.88;6281933;20;2742109;-53
2022/10/02 02:30:21;;;;;;;;;4.50;4.50;;;;;12.14;100.00;99457.19;6281512;20;2743140;-54
2022/10/02 02:33:13;;;;;;;;;4.00;4.00;;;;;12.23;100.00;99475.38;6276732;20;2753569;-52
2022/10/02 02:35:48;;;;;;;;;4.50;4.50;;;;;12.04;100.00;99474.00;6280324;20;2748233;-52
2022/10/02 02:38:36;;;;;;;;;4.00;4.00;;;;;12.08;100.00;99486.28;6280589;20;2754574;-55
2022/10/02 02:41:12;;;;;;;;;3.00;3.00;;;;;11.99;100.00;99489.59;6278317;20;2744000;-52
2022/10/02 02:44:17;;;;;;;;;4.00;4.00;;;;;12.12;100.00;99504.88;6278316;20;2752407;-52
2022/10/02 02:47:06;;;;;;;;;7.00;6.00;;;;;11.96;100.00;99497.91;6288233;20;2739975;-52
2022/10/02 02:50:16;;;;;;;;;4.50;4.00;;;;;11.84;100.00;99506.78;6278912;20;2753449;-53
2022/10/02 02:53:06;;;;;;;;;7.00;4.00;;;;;11.64;100.00;99500.97;6277554;20;2744455;-54
2022/10/02 02:55:44;;;;;;;;;5.00;5.00;;;;;11.33;100.00;99501.34;6275746;20;2745064;-54
2022/10/02 02:58:55;;;;;;;;;5.00;4.50;;;;;11.33;100.00;99506.72;6277222;20;2743818;-53
2022/10/02 03:01:23;;;;;;;;;4.00;4.00;;;;;11.41;100.00;99515.13;6276894;20;2739870;-54
2022/10/02 03:03:50;;;;;;;;;8.00;5.00;;;;;11.33;100.00;99525.53;6278334;20;3458663;-53
2022/10/02 03:06:36;;;;;;;;;4.00;3.00;;;;;11.50;100.00;99525.22;6294560;20;1811873;-54
2022/10/02 03:09:18;;;;;;;;;4.00;4.00;;;;;11.31;100.00;99519.41;6308424;20;2746102;-52
2022/10/02 03:12:03;;;;;;;;;7.00;5.50;;;;;11.55;100.00;99531.16;6279168;20;2742023;-54
2022/10/02 03:14:49;;;;;;;;;5.00;5.00;;;;;11.58;100.00;99528.25;6278492;20;2737835;-53
2022/10/02 03:17:49;;;;;;;;;6.00;5.00;;;;;11.56;100.00;99521.28;6278440;20;2747268;-54
2022/10/02 03:20:41;;;;;;;;;6.50;6.50;;;;;11.70;100.00;99528.41;6280425;20;2740936;-54
2022/10/02 03:23:52;;;;;;;;;6.00;6.00;;;;;11.85;100.00;99530.91;6281909;20;2737753;-54
2022/10/02 03:26:40;;;;;;;;;6.00;6.00;;;;;11.97;100.00;99542.66;6275998;20;2744056;-51
2022/10/02 03:29:42;;;;;;;;;4.40;4.40;;;;;11.95;100.00;99543.72;6296629;20;2737880;-53
2022/10/02 03:32:15;;;;;;;;;8.40;6.00;;;;;12.02;100.00;99553.97;6332894;20;2737826;-53
2022/10/02 03:34:43;;;;;;;;;5.00;5.00;;;;;12.19;100.00;99555.50;6308741;20;2744057;-54
2022/10/02 03:37:11;;;;;;;;;7.50;6.00;;;;;12.25;100.00;99559.56;6278131;20;2744170;-53
2022/10/02 03:39:44;;;;;;;;;6.00;6.00;;;;;12.28;100.00;99553.97;6275361;20;2744075;-54
2022/10/02 03:42:14;;;;;;;;;6.00;6.00;;;;;12.40;100.00;99558.50;6278947;20;2741754;-50
2022/10/02 03:44:42;;;;;;;;;6.00;6.00;;;;;12.37;100.00;99569.47;6277223;20;2728474;-55
2022/10/02 03:47:10;;;;;;;;;5.00;5.00;;;;;12.41;100.00;99565.59;6271884;20;2746803;-49
2022/10/02 03:49:38;;;;;;;;;8.00;4.00;;;;;12.46;100.00;99563.44;6279563;20;2740917;-50
2022/10/02 03:52:06;;;;;;;;;7.50;6.00;;;;;12.29;100.00;99572.69;6277577;20;2746139;-55
2022/10/02 03:54:35;;;;;;;;;9.00;6.00;;;;;12.34;100.00;99569.69;6278952;20;2744119;-53
2022/10/02 03:57:17;;;;;;;;;5.00;5.00;;;;;12.39;100.00;99580.13;6273360;20;2752361;-54
2022/10/02 04:00:18;;;;;;;;;4.50;4.50;;;;;12.36;100.00;99574.97;6276365;20;2735683;-52
2022/10/02 04:03:00;;;;;;;;;5.00;5.00;;;;;12.29;100.00;99578.06;6276194;20;2744197;-52
2022/10/02 04:05:40;;;;;;;;;5.00;5.00;;;;;12.26;100.00;99577.44;6276110;20;2744526;-53
2022/10/02 04:08:35;;;;;;;;;4.80;4.80;;;;;12.33;100.00;99581.44;6321727;20;2618096;-51
2022/10/02 04:11:42;;;;;;;;;4.00;4.00;;;;;12.40;100.00;99584.53;6307182;20;2742997;-54
2022/10/02 04:15:07;;;;;;;;;6.00;5.50;;;;;12.42;100.00;99590.69;6275561;20;2739898;-53
2022/10/02 04:18:10;;;;;;;;;7.50;6.00;;;;;12.51;100.00;99604.38;6276396;20;2742080;-53
2022/10/02 04:21:39;;;;;;;;;4.00;4.00;;;;;12.54;100.00;99602.44;6276755;20;2729448;-52
2022/10/02 04:24:30;;;;;;;;;5.00;5.00;;;;;12.66;100.00;99605.06;6274042;20;2754459;-53
2022/10/02 04:27:28;;;;;;;;;5.00;5.00;;;;;12.73;100.00;99608.22;6285052;20;2725341;-53
2022/10/02 04:30:05;;;;;;;;;8.00;8.00;;;;;12.75;100.00;99611.66;6282107;20;2750275;-55
2022/10/02 04:32:35;;;;;;;;;6.50;6.00;;;;;12.71;100.00;99604.75;6281039;20;2738838;-54
2022/10/02 04:35:40;;;;;;;;;5.00;5.00;;;;;12.66;100.00;99605.06;6284746;20;2733782;-55
2022/10/02 04:38:58;;;;;;;;;6.00;6.00;;;;;12.65;100.00;99599.81;6280182;20;2745069;-51
2022/10/02 04:41:34;;;;;;;;;5.00;5.00;;;;;12.57;100.00;99602.22;6282116;20;2732569;-51
2022/10/02 04:44:33;;;;;;;;;5.00;5.00;;;;;12.49;100.00;99606.28;6299990;20;1807867;-53
2022/10/02 04:47:54;;;;;;;;;4.50;4.50;;;;;12.54;100.00;99619.44;6309110;20;2745239;-51
2022/10/02 04:50:43;;;;;;;;;6.00;6.00;;;;;12.53;100.00;99617.69;6281795;20;2734706;-53
2022/10/02 04:53:54;;;;;;;;;5.00;5.00;;;;;12.40;100.00;99617.72;6282864;20;2743132;-51
2022/10/02 04:56:45;;;;;;;;;5.00;5.00;;;;;12.54;100.00;99629.34;6284616;20;2737810;-55
2022/10/02 04:59:34;;;;;;;;;5.00;5.00;;;;;12.46;100.00;99633.44;6278921;20;2733636;-54
2022/10/02 05:02:43;;;;;;;;;3.00;3.00;;;;;12.42;100.00;99637.31;6277573;20;2744129;-54
2022/10/02 05:05:31;;;;;;;;;5.00;5.00;;;;;12.49;100.00;99649.38;6276411;20;2743116;-51
2022/10/02 05:08:19;;;;;;;;;6.00;5.00;;;;;12.51;100.00;99647.44;6283643;20;2748166;-52
2022/10/02 05:11:27;;;;;;;;;6.00;6.00;;;;;12.49;100.00;99646.69;6285819;20;2741957;-54
2022/10/02 05:14:40;;;;;;;;;5.00;5.00;;;;;12.55;100.00;99653.47;6282015;20;2727394;-55
2022/10/02 05:18:06;;;;;;;;;5.00;5.00;;;;;12.51;100.00;99663.59;6279935;20;2748185;-53
2022/10/02 05:21:11;;;;;;;;;4.00;4.00;;;;;12.52;100.00;99665.31;6278411;20;2742975;-55
2022/10/02 05:24:01;;;;;;;;;7.00;5.00;;;;;12.54;100.00;99669.75;6278092;20;2736733;-55
2022/10/02 05:26:51;;;;;;;;;5.00;5.00;;;;;12.59;100.00;99662.22;6280974;20;2734705;-52
2022/10/02 05:29:57;;;;;;;;;5.00;5.00;;;;;12.55;100.00;99661.56;6281167;20;2732721;-54
2022/10/02 05:33:01;;;;;;;;;4.00;4.00;;;;;12.65;100.00;99667.16;6284892;20;2729460;-54
2022/10/02 05:35:41;;;;;;;;;3.00;3.00;;;;;12.76;100.00;99669.09;6279139;20;2747121;-53
2022/10/02 05:38:26;;;;;;;;;4.50;4.00;;;;;12.81;100.00;99677.72;6279007;20;2751300;-55
2022/10/02 05:41:30;;;;;;;;;5.00;4.00;;;;;12.90;100.00;99685.13;6282012;20;2742965;-55
2022/10/02 05:44:27;;;;;;;;;5.50;4.00;;;;;12.91;100.00;99690.44;6280892;20;2739886;-54
2022/10/02 05:47:34;;;;;;;;;4.00;4.00;;;;;12.92;100.00;99685.88;6275065;20;2753415;-56
2022/10/02 05:50:11;;;;;;;;;3.50;3.00;;;;;13.02;100.00;99695.03;6276766;20;2749279;-54
2022/10/02 05:53:24;;;;;;;;;4.00;4.00;;;;;13.05;100.00;99692.13;6280523;20;2746621;-53
2022/10/02 05:56:04;;;;;;;;;3.50;3.50;;;;;13.12;100.00;99679.09;6278901;20;2748250;-53
2022/10/02 05:58:57;;;;;;;;;5.50;5.00;;;;;13.31;100.00;99689.41;6282147;20;2735802;-52
2022/10/02 06:01:39;;;;;;;;;4.50;4.50;;;;;13.37;98.96;99687.13;6276641;20;2742995;-53
2022/10/02 06:04:43;;;;;;;;;7.50;5.00;;;;;13.64;96.96;99686.09;6281627;20;2739881;-54
2022/10/02 06:07:17;;;;;;;;;4.50;4.50;;;;;13.70;96.81;99691.00;6280516;20;2742092;-52
2022/10/02 06:09:57;;;;;;;;;4.00;4.00;;;;;13.78;95.82;99687.75;6276906;20;2750285;-54
2022/10/02 06:12:59;;;;;;;;;3.00;3.00;;;;;13.84;95.05;99692.69;6283786;20;2739962;-53
2022/10/02 06:15:54;;;;;;;;;4.00;4.00;;;;;14.13;93.77;99700.41;6277562;20;2748211;-56
2022/10/02 06:18:28;;;;;;;;;4.50;4.50;;;;;14.14;92.75;99692.22;6280760;20;2751397;-52
2022/10/02 06:21:08;;;;;;;;;4.00;4.00;;;;;14.14;91.98;99700.31;6278217;20;2752368;-55
2022/10/02 06:23:51;;;;;;;;;5.00;3.00;;;;;14.26;92.00;99704.75;6279184;20;2744028;-56
2022/10/02 06:26:50;;;;;;;;;5.00;3.00;;;;;14.33;91.75;99699.75;6277673;20;2748207;-51
2022/10/02 06:29:47;;;;;;;;;5.00;3.00;;;;;14.60;90.71;99707.59;6272543;20;2749236;-52
2022/10/02 06:32:50;;;;;;;;;3.00;3.00;;;;;14.71;90.06;99713.00;6280444;20;2752376;-54
2022/10/02 06:35:37;;;;;;;;;3.50;3.00;;;;;14.53;90.89;99719.84;6284081;20;2747174;-51
2022/10/02 06:38:41;;;;;;;;;4.00;3.00;;;;;14.78;90.29;99726.91;6284085;20;2731604;-55
2022/10/02 06:41:53;;;;;;;;;4.00;3.00;;;;;14.90;89.22;99736.78;6281449;20;2750293;-55
2022/10/02 06:45:07;;;;;;;;;3.50;3.50;;;;;14.88;89.05;99733.31;6281529;20;2744026;-54
2022/10/02 06:48:21;;;;;;;;;5.00;3.00;;;;;15.18;88.62;99744.53;6276629;20;2753501;-53
2022/10/02 06:51:08;;;;;;;;;5.00;4.00;;;;;15.56;87.72;99744.13;6292632;20;1800368;-54
2022/10/02 06:53:44;;;;;;;;;4.00;4.00;;;;;18.29;76.75;99757.59;6313155;20;2749261;-57
2022/10/02 06:57:24;;;;;;;;;3.00;3.00;;;;;19.17;69.08;99767.41;6280590;20;2730536;-58
2022/10/02 07:00:11;;;;;;;;;2.33;2.33;;;;;18.47;73.36;99776.78;6276721;20;2737869;-55
2022/10/02 07:03:17;;;;;;;;;3.00;3.00;;;;;16.82;77.55;99772.44;6306313;20;2739884;-52
2022/10/02 07:06:22;;;;;;;;;3.00;3.00;;;;;16.37;82.91;99778.06;6308374;20;2728429;-56
2022/10/02 07:09:42;;;;;;;;;3.00;3.00;;;;;16.25;83.55;99784.53;6284055;20;2736783;-55
2022/10/02 07:12:29;;;;;;;;;2.00;2.00;;;;;16.40;83.20;99785.94;6283344;20;2750287;-53
2022/10/02 07:15:24;;;;;;;;;2.50;2.50;;;;;16.02;84.29;99791.84;6284993;20;2731590;-55
2022/10/02 07:18:51;;;;;;;;;5.00;3.00;;;;;16.44;83.78;99787.38;6283715;20;2739985;-56
2022/10/02 07:21:22;;;;;;;;;2.67;2.67;;;;;16.61;82.00;99790.50;6285471;20;3454428;-53
2022/10/02 07:24:10;;;;;;;;;2.00;2.00;;;;;16.53;82.12;99798.44;6285767;20;2732967;-54
2022/10/02 07:26:46;;;;;;;;;2.40;2.40;;;;;16.50;80.12;99799.56;6301461;20;2747305;-56
2022/10/02 07:29:32;;;;;;;;;5.00;4.00;;;;;16.77;79.70;99798.19;6310280;20;2755618;-57
2022/10/02 07:32:37;;;;;;;;;2.00;2.00;;;;;17.16;78.33;99796.63;6282590;20;2738849;-54
2022/10/02 07:35:48;;;;;;;;;3.00;3.00;;;;;16.83;79.16;99800.44;6312545;20;2756510;-55
2022/10/02 07:39:34;;;;;;;;;3.50;3.50;;;;;17.32;77.76;99798.88;6282328;20;2753447;-56
2022/10/02 07:42:54;;;;;;;;;2.00;2.00;;;;;17.23;76.85;99803.25;6281696;20;2738883;-55
2022/10/02 07:45:28;;;;;;;;;6.00;4.00;;;;;17.04;77.58;99808.59;6309557;20;2747141;-56
2022/10/02 07:48:00;;;;;;;;;4.00;4.00;;;;;17.12;76.43;99806.06;6279807;20;2739869;-54
2022/10/02 07:50:45;;;;;;;;;3.00;3.00;;;;;17.38;76.48;99809.22;6310954;20;2739921;-56
2022/10/02 07:53:39;;;;;;;;;6.50;5.00;;;;;17.22;75.87;99809.69;6283829;20;2747210;-56
2022/10/02 07:56:18;;;;;;;;;6.00;6.00;;;;;17.44;76.97;99807.81;6279444;20;2742995;-54
2022/10/02 07:58:58;;;;;;;;;5.00;5.00;;;;;17.44;75.24;99805.94;6284824;20;2747265;-53
2022/10/02 08:01:35;;;;;;;;;3.00;3.00;;;;;17.28;75.14;99806.44;6283589;20;2734764;-52
2022/10/02 08:04:17;;;;;;;;;2.00;2.00;;;;;16.95;75.58;99803.94;6305770;20;2744138;-57
2022/10/02 08:06:58;;;;;;;;;2.00;2.00;;;;;17.28;76.44;99801.00;6310339;20;2733759;-53
2022/10/02 08:09:50;;;;;;;;;3.00;3.00;;;;;17.51;75.30;99806.28;6310749;20;2727394;-56
2022/10/02 08:12:51;;;;;;;;;2.00;2.00;;;;;17.49;74.07;99798.25;6313175;20;2732595;-57
2022/10/02 08:15:22;;;;;;;;;3.00;3.00;;;;;17.77;74.46;99806.63;6311573;20;2740339;-55
2022/10/02 08:18:02;;;;;;;;;3.67;3.00;;;;;17.88;73.67;99800.31;6286229;20;2731875;-56
2022/10/02 08:20:52;;;;;;;;;2.00;2.00;;;;;17.73;75.17;99803.34;6308438;20;2726318;-54
2022/10/02 08:23:26;;;;;;;;;2.00;2.00;;;;;17.82;72.59;99798.13;6307231;20;2740947;-56
2022/10/02 08:26:33;;;;;;;;;4.00;2.00;;;;;17.55;73.03;99794.97;6311465;20;2723433;-55
2022/10/02 08:29:45;;;;;;;;;4.00;2.67;;;;;18.02;73.28;99796.31;6306668;20;2740027;-56
2022/10/02 08:32:14;;;;;;;;;3.00;3.00;;;;;17.84;71.67;99801.56;6310877;20;2740947;-57
2022/10/02 08:34:43;;;;;;;;;3.33;2.33;;;;;17.65;71.38;99808.59;6307068;20;2746286;-53
2022/10/02 08:38:00;;;;;;;;;3.00;2.33;;;;;17.76;71.66;99813.94;6305276;20;2734666;-56
2022/10/02 08:41:36;;;;;;;;;6.00;6.00;;;;;17.59;72.71;99792.88;6311926;20;2745083;-57
2022/10/02 08:44:31;;;;;;;;;3.00;2.00;;;;;17.46;70.93;99792.25;6286715;20;2746153;-56
2022/10/02 08:47:27;;;;;;;;;3.00;3.00;;;;;17.94;71.11;99807.88;6308141;20;2742003;-57
2022/10/02 08:51:29;;;;;;;;;2.67;2.67;;;;;17.96;70.35;99805.91;6310625;20;2733671;-54
2022/10/02 08:54:58;;;;;;;;;2.67;2.67;;;;;17.79;70.41;99804.69;6303830;20;2744049;-55
2022/10/02 08:58:02;;;;;;;;;2.00;2.00;;;;;17.72;68.98;99798.94;6310883;20;2738441;-56
2022/10/02 09:00:43;;;;;;;;;2.67;2.00;;;;;17.92;69.93;99815.31;6309421;20;2745181;-55
2022/10/02 09:04:08;;;;;;;;;1.67;1.00;;;;;17.80;68.79;99808.25;6311610;20;2737787;-61
2022/10/02 09:07:20;;;;;;;;;1.00;1.00;;;;;17.83;68.94;99827.88;6309785;20;2724344;-55
2022/10/02 09:10:29;;;;;;;;;3.40;2.00;;;;;17.99;69.32;99830.06;6327463;20;2738934;-56
2022/10/02 09:13:45;;;;;;;;;2.00;2.00;;;;;18.18;69.34;99829.25;6314662;20;2746118;-55
2022/10/02 09:17:13;;;;;;;;;2.00;2.00;;;;;18.08;68.90;99834.66;6316651;20;2753507;-56
2022/10/02 09:20:04;;;;;;;;;2.00;2.00;;;;;17.72;67.99;99838.78;6315679;20;2734677;-57
2022/10/02 09:23:12;;;;;;;;;2.67;1.33;;;;;18.06;69.52;99833.94;6316302;20;2737844;-56
2022/10/02 09:26:30;;;;;;;;;1.00;1.00;;;;;18.13;67.05;99840.53;6316546;20;2735726;-57
2022/10/02 09:29:54;;;;;;;;;2.00;2.00;;;;;18.19;68.84;99829.13;6309568;20;2727383;-50
2022/10/02 09:32:44;;;;;;;;;2.33;1.33;;;;;18.33;68.81;99827.00;6311490;20;2729557;-51
2022/10/02 09:36:23;;;;;;;;;3.67;1.67;;;;;18.49;68.68;99819.13;6314643;20;2748195;-50
2022/10/02 09:39:46;;;;;;;;;3.33;2.00;;;;;18.18;69.27;99816.50;6311606;20;2754469;-53
2022/10/02 09:43:22;;;;;;;;;1.67;1.00;;;;;18.28;66.35;99823.84;6318718;20;2731554;-50
2022/10/02 09:46:25;;;;;;;;;1.00;1.00;;;;;17.95;66.46;99817.75;6313222;20;2718256;-49
2022/10/02 09:49:41;;;;;;;;;1.67;1.67;;;;;18.19;66.36;99823.69;6311432;20;2746301;-53
2022/10/02 09:52:38;;;;;;;;;1.67;1.00;;;;;18.35;65.89;99828.56;6311913;20;2726362;-54
2022/10/02 09:56:31;;;;;;;;;2.00;2.00;;;;;18.18;65.76;99824.66;6313600;20;2734697;-50
2022/10/02 09:59:45;;;;;;;;;2.67;2.67;;;;;17.91;64.27;99813.59;6310584;20;2755511;-50
2022/10/02 10:02:46;;;;;;;;;2.00;2.00;;;;;18.24;65.02;99809.66;6311350;20;2744048;-49
2022/10/02 10:05:46;;;;;;;;;4.67;3.67;;;;;18.02;65.11;99809.91;6315656;20;2752495;-55
2022/10/02 10:09:00;;;;;;;;;3.00;1.00;;;;;18.40;65.04;99819.97;6316367;20;2744181;-52
2022/10/02 10:11:58;;;;;;;;;3.33;3.00;;;;;18.02;66.51;99816.19;6315570;20;2739899;-54
2022/10/02 10:14:50;;;;;;;;;4.00;3.00;;;;;18.02;66.29;99827.06;6320213;20;2621133;-51
2022/10/02 10:18:18;;;;;;;;;2.00;2.00;;;;;18.10;65.33;99816.34;6312393;20;2742015;-49
2022/10/02 10:21:29;;;;;;;;;2.33;1.67;;;;;17.75;65.63;99819.50;6311584;20;2735731;-50
2022/10/02 10:24:32;;;;;;;;;4.00;1.33;;;;;18.02;65.52;99818.91;6306673;20;2748273;-58
2022/10/02 10:28:02;;;;;;;;;4.00;4.00;;;;;17.92;66.30;99824.31;6308751;20;2752440;-57
2022/10/02 10:31:01;;;;;;;;;2.00;2.00;;;;;18.13;64.19;99812.50;6313026;20;2741945;-58
2022/10/02 10:34:36;;;;;;;;;2.00;1.00;;;;;18.11;63.73;99804.47;6311939;20;2729570;-54
2022/10/02 10:41:00;;;;;;;;;2.00;2.00;;;;;18.10;63.84;99810.06;6314889;20;2737801;-58
2022/10/02 10:44:03;;;;;;;;;1.00;1.00;;;;;18.01;63.09;99809.06;6311887;20;2727510;-58
2022/10/02 10:47:18;;;;;;;;;1.33;1.33;;;;;18.26;62.89;99795.94;6310392;20;2737895;-54
2022/10/02 10:50:34;;;;;;;;;2.00;2.00;;;;;18.63;62.15;99793.38;6311357;20;2742149;-57
2022/10/02 10:53:58;;;;;;;;;4.67;2.00;;;;;18.62;64.13;99788.94;6309928;20;2753416;-55
2022/10/02 10:56:48;;;;;;;;;3.00;1.86;;;;;18.35;63.24;99795.06;6350246;20;3466933;-57
2022/10/02 11:00:15;;;;;;;;;1.00;1.00;;;;;17.82;62.94;99787.25;6317248;20;2611865;-57
2022/10/02 11:03:48;;;;;;;;;4.00;3.00;;;;;17.55;64.06;99794.13;6317428;20;2629549;-57
2022/10/02 11:07:06;;;;;;;;;3.00;3.00;;;;;17.72;65.21;99792.59;6286833;20;2735787;-51
2022/10/02 11:10:30;;;;;;;;;1.00;1.00;;;;;17.60;64.04;99800.00;6288913;20;2727370;-51
2022/10/02 11:13:41;;;;;;;;;2.67;2.00;;;;;17.68;63.55;99799.31;6306494;20;2742069;-50
2022/10/02 11:16:53;;;;;;;;;2.00;2.00;;;;;17.99;64.56;99797.47;6311178;20;2738832;-59
2022/10/02 11:20:16;;;;;;;;;1.67;1.67;;;;;17.94;64.55;99791.59;6308801;20;2735720;-50
2022/10/02 11:23:38;;;;;;;;;1.67;1.67;;;;;17.74;63.61;99786.03;6311068;20;2733638;-55
2022/10/02 11:26:42;;;;;;;;;3.00;1.33;;;;;17.86;62.60;99799.56;6312938;20;2737841;-54
2022/10/02 11:29:29;;;;;;;;;1.67;0.67;;;;;17.97;63.50;99796.72;6311532;20;2733623;-57
2022/10/02 11:32:43;;;;;;;;;3.00;2.00;;;;;17.74;64.10;99786.03;6307118;20;2737783;-53
2022/10/02 11:35:36;;;;;;;;;2.50;1.00;;;;;17.93;62.81;99803.44;6313164;20;2621135;-58
2022/10/02 11:38:37;;;;;;;;;3.00;1.00;;;;;17.77;62.40;99804.81;6311578;20;2739912;-57
2022/10/02 11:41:42;;;;;;;;;2.00;2.00;;;;;17.65;61.65;99791.47;6310661;20;2745158;-56
2022/10/02 11:44:23;;;;;;;;;2.00;2.00;;;;;17.91;63.08;99791.88;6313265;20;2739940;-58
2022/10/02 11:47:28;;;;;;;;;1.00;1.00;;;;;17.82;62.25;99792.69;6347334;20;3440280;-51
2022/10/02 11:50:44;;;;;;;;;5.40;4.00;;;;;17.93;63.24;99785.28;6333897;20;2740922;-57
2022/10/02 11:53:24;;;;;;;;;5.33;1.33;;;;;17.96;62.60;99779.56;6309437;20;2735836;-58
2022/10/02 11:56:13;;;;;;;;;4.00;2.00;;;;;17.76;63.20;99778.63;6310074;20;2743111;-56
2022/10/02 12:00:03;;;;;;;;;2.00;2.00;;;;;17.72;63.05;99776.31;6310265;20;2744067;-57
2022/10/02 12:03:02;;;;;;;;;2.00;2.00;;;;;17.68;63.45;99783.88;6312745;20;2746125;-56
2022/10/02 12:06:03;;;;;;;;;1.00;1.00;;;;;17.63;63.47;99788.00;6312000;20;2729499;-55
2022/10/02 12:08:52;;;;;;;;;2.33;2.00;;;;;18.01;59.82;99784.59;6311342;20;2726349;-54
2022/10/02 12:12:07;;;;;;;;;3.00;2.00;;;;;18.47;60.58;99782.22;6313428;20;2752480;-52
2022/10/02 12:15:15;;;;;;;;;1.00;1.00;;;;;17.99;60.06;99779.28;6313416;20;2722173;-55
2022/10/02 12:18:19;;;;;;;;;3.00;2.00;;;;;18.16;60.13;99785.88;6309155;20;2744034;-56
2022/10/02 12:27:35;;;;;;;;;3.00;2.00;;;;;18.54;59.73;99776.06;6310240;20;2744259;-54
2022/10/02 12:30:35;;;;;;;;;3.00;2.00;;;;;18.75;61.13;99765.06;6310374;20;2755524;-52
2022/10/02 12:33:47;;;;;;;;;1.33;1.33;;;;;18.69;60.59;99768.31;6309188;20;2725288;-53
2022/10/02 12:36:55;;;;;;;;;1.00;1.00;;;;;19.05;59.94;99761.28;6303273;20;2726467;-56
2022/10/02 12:39:56;;;;;;;;;2.33;1.67;;;;;18.48;59.80;99759.44;6309462;20;2731685;-56
2022/10/02 12:43:09;;;;;;;;;1.00;1.00;;;;;18.74;59.46;99751.56;6309753;20;2731671;-49
2022/10/02 12:46:12;;;;;;;;;1.00;1.00;;;;;18.61;57.70;99744.56;6313662;20;2716989;-54
2022/10/02 12:49:27;;;;;;;;;1.67;1.00;;;;;18.59;59.36;99743.88;6318933;20;2724265;-53
2022/10/02 12:52:49;;;;;;;;;2.00;2.00;;;;;18.46;58.99;99737.88;6315563;20;2746198;-53
2022/10/02 12:56:07;;;;;;;;;2.33;2.00;;;;;18.53;59.30;99724.53;6311965;20;2734719;-54
2022/10/02 12:59:20;;;;;;;;;2.60;2.00;;;;;18.43;59.63;99716.38;6337071;20;2754585;-55
2022/10/02 13:02:29;;;;;;;;;1.00;1.00;;;;;18.69;58.93;99715.78;6282205;20;2733735;-56
2022/10/02 13:06:32;;;;;;;;;1.00;1.00;;;;;18.99;60.78;99718.34;6317767;20;2727750;-50
2022/10/02 13:09:26;;;;;;;;;1.00;1.00;;;;;18.70;59.10;99715.66;6318636;20;2727376;-49
2022/10/02 13:12:18;;;;;;;;;1.33;1.33;;;;;18.73;59.67;99709.06;6310050;20;2740576;-54
2022/10/02 13:15:05;;;;;;;;;2.00;2.00;;;;;18.60;60.40;99712.09;6314971;20;2727541;-50
2022/10/02 13:18:02;;;;;;;;;2.00;2.00;;;;;18.64;62.26;99708.06;6316079;20;2739239;-49
2022/10/02 13:20:55;;;;;;;;;2.00;1.67;;;;;18.54;60.38;99701.78;6310888;20;2737848;-54
2022/10/02 13:23:30;;;;;;;;;2.00;2.00;;;;;18.32;60.33;99698.34;6316865;20;2742036;-52
2022/10/02 13:26:40;;;;;;;;;3.00;1.67;;;;;18.08;61.41;99698.78;6315567;20;2742076;-48
2022/10/02 13:29:51;;;;;;;;;2.00;2.00;;;;;17.89;61.99;99696.06;6313967;20;2748279;-50
2022/10/02 13:32:51;;;;;;;;;2.00;2.00;;;;;17.93;62.88;99702.91;6311317;20;2746172;-47
2022/10/02 13:36:05;;;;;;;;;2.67;2.67;;;;;17.81;62.72;99696.75;6316167;20;2734655;-49
2022/10/02 13:39:20;;;;;;;;;6.00;3.00;;;;;17.76;63.74;99699.00;6309850;20;2739907;-51